createdAt,value
2018-11-10T00:02:15.344Z,54.83
2018-11-10T00:04:43.662Z,50.37
2018-11-10T00:07:11.978Z,54.37
2018-11-10T00:09:40.828Z,52.40
2018-11-10T00:12:09.178Z,53.20
2018-11-10T00:14:37.579Z,48.70
2018-11-10T00:17:06.558Z,48.63
2018-11-10T00:19:35.054Z,55.00
2018-11-10T00:22:03.530Z,54.00
2018-11-10T00:24:31.897Z,52.13
2018-11-10T00:27:00.299Z,64.67
2018-11-10T00:29:28.723Z,55.37
2018-11-10T00:31:57.193Z,55.10
2018-11-10T00:34:25.843Z,54.23
2018-11-10T00:36:54.471Z,54.67
2018-11-10T00:39:22.893Z,63.90
2018-11-10T00:41:51.371Z,53.07
2018-11-10T00:44:20.221Z,51.87
2018-11-10T00:46:48.763Z,53.80
2018-11-10T00:49:17.332Z,51.33
2018-11-10T00:51:45.810Z,52.73
2018-11-10T00:54:14.125Z,47.43
2018-11-10T00:56:42.670Z,50.90
2018-11-10T00:59:10.970Z,49.47
2018-11-10T01:01:39.352Z,50.80
2018-11-10T01:04:07.607Z,50.13
2018-11-10T01:06:35.952Z,52.27
2018-11-10T01:09:05.208Z,51.67
2018-11-10T01:11:33.685Z,53.20
2018-11-10T01:14:02.061Z,48.77
2018-11-10T01:16:30.384Z,58.13
2018-11-10T01:18:58.759Z,59.77
2018-11-10T01:21:27.106Z,51.43
2018-11-10T01:23:55.577Z,48.27
2018-11-10T01:26:23.805Z,47.87
2018-11-10T01:28:52.146Z,47.80
2018-11-10T01:31:20.474Z,49.67
2018-11-10T01:33:48.736Z,47.80
2018-11-10T01:36:17.038Z,50.30
2018-11-10T01:38:45.420Z,49.07
2018-11-10T01:41:13.718Z,50.00
2018-11-10T01:43:42.058Z,50.77
2018-11-10T01:46:10.361Z,51.37
2018-11-10T01:48:38.628Z,51.00
2018-11-10T01:51:06.929Z,48.60
2018-11-10T01:53:35.262Z,58.10
2018-11-10T01:56:03.644Z,73.87
2018-11-10T01:58:32.282Z,51.30
2018-11-10T02:01:00.548Z,49.97
2018-11-10T02:03:28.870Z,50.33
2018-11-10T02:05:57.236Z,51.30
2018-11-10T02:08:25.640Z,49.20
2018-11-10T02:10:53.934Z,46.70
2018-11-10T02:13:22.263Z,47.27
2018-11-10T02:15:50.603Z,48.13
2018-11-10T02:18:18.848Z,48.47
2018-11-10T02:20:47.169Z,46.90
2018-11-10T02:23:15.605Z,46.93
2018-11-10T02:25:43.829Z,43.93
2018-11-10T02:28:12.174Z,49.50
2018-11-10T02:30:40.512Z,44.10
2018-11-10T02:33:08.932Z,45.67
2018-11-10T02:35:37.314Z,46.50
2018-11-10T02:38:05.759Z,43.00
2018-11-10T02:40:33.968Z,45.83
2018-11-10T02:43:02.390Z,46.53
2018-11-10T02:45:30.776Z,47.80
2018-11-10T02:47:59.233Z,45.07
2018-11-10T02:50:27.587Z,50.13
2018-11-10T02:52:55.884Z,48.13
2018-11-10T02:55:24.190Z,44.10
2018-11-10T02:57:52.574Z,48.37
2018-11-10T03:00:21.358Z,47.43
2018-11-10T03:02:49.690Z,48.63
2018-11-10T03:05:17.957Z,48.83
2018-11-10T03:07:46.289Z,47.83
2018-11-10T03:10:14.773Z,46.93
2018-11-10T03:12:43.106Z,44.97
2018-11-10T03:15:12.427Z,42.50
2018-11-10T03:17:40.705Z,44.83
2018-11-10T03:20:10.857Z,47.33
2018-11-10T03:22:39.318Z,45.10
2018-11-10T03:25:07.621Z,44.47
2018-11-10T03:27:35.979Z,47.17
2018-11-10T03:30:04.357Z,43.83
2018-11-10T03:32:32.700Z,43.70
2018-11-10T03:35:02.522Z,45.60
2018-11-10T03:37:30.832Z,44.80
2018-11-10T03:39:59.132Z,44.87
2018-11-10T03:42:27.452Z,46.60
2018-11-10T03:44:55.838Z,40.97
2018-11-10T03:47:24.087Z,45.67
2018-11-10T03:49:52.356Z,43.83
2018-11-10T03:52:20.727Z,41.50
2018-11-10T03:54:49.035Z,43.70
2018-11-10T03:57:17.290Z,40.90
2018-11-10T03:59:45.628Z,44.20
2018-11-10T04:02:13.896Z,42.50
2018-11-10T04:04:42.250Z,41.27
2018-11-10T04:07:10.484Z,40.07
2018-11-10T04:09:38.801Z,43.03
2018-11-10T04:12:07.117Z,39.90
2018-11-10T04:14:35.390Z,43.00
2018-11-10T04:17:03.673Z,41.50
2018-11-10T04:19:32.083Z,41.67
2018-11-10T04:22:00.460Z,43.53
2018-11-10T04:24:28.899Z,43.43
2018-11-10T04:26:57.145Z,38.00
2018-11-10T04:29:25.471Z,41.47
2018-11-10T04:31:53.815Z,39.73
2018-11-10T04:34:22.112Z,41.17
2018-11-10T04:36:50.429Z,39.23
2018-11-10T04:39:18.964Z,41.50
2018-11-10T04:41:47.254Z,37.67
2018-11-10T04:44:15.646Z,36.07
2018-11-10T04:46:44.001Z,42.27
2018-11-10T04:49:12.415Z,54.97
2018-11-10T04:51:40.830Z,61.07
2018-11-10T04:54:09.077Z,43.57
2018-11-10T04:56:37.397Z,37.57
2018-11-10T04:59:05.676Z,38.40
2018-11-10T05:01:34.007Z,36.47
2018-11-10T05:04:03.290Z,36.87
2018-11-10T05:06:31.666Z,35.17
2018-11-10T05:09:00.106Z,38.90
2018-11-10T05:11:28.410Z,38.37
2018-11-10T05:13:57.127Z,37.03
2018-11-10T05:16:25.414Z,36.60
2018-11-10T05:18:53.696Z,39.27
2018-11-10T05:21:21.968Z,41.27
2018-11-10T05:23:50.272Z,37.60
2018-11-10T05:26:18.535Z,38.03
2018-11-10T05:28:46.905Z,37.93
2018-11-10T05:31:15.437Z,38.00
2018-11-10T05:33:43.928Z,34.60
2018-11-10T05:36:12.483Z,36.23
2018-11-10T05:38:41.041Z,36.80
2018-11-10T05:41:09.310Z,36.93
2018-11-10T05:43:37.934Z,37.00
2018-11-10T05:46:06.325Z,33.47
2018-11-10T05:48:34.639Z,34.43
2018-11-10T05:51:02.972Z,34.40
2018-11-10T05:53:31.301Z,33.40
2018-11-10T05:55:59.570Z,34.47
2018-11-10T05:58:27.950Z,34.23
2018-11-10T06:00:56.613Z,35.47
2018-11-10T06:03:25.108Z,59.50
2018-11-10T06:05:53.780Z,45.47
2018-11-10T06:08:22.107Z,37.43
2018-11-10T06:10:50.639Z,33.97
2018-11-10T06:13:19.122Z,33.07
2018-11-10T06:15:47.535Z,35.07
2018-11-10T06:18:15.858Z,34.67
2018-11-10T06:20:44.115Z,32.70
2018-11-10T06:23:12.361Z,34.23
2018-11-10T06:25:40.812Z,32.43
2018-11-10T06:28:09.106Z,33.03
2018-11-10T06:30:37.632Z,33.23
2018-11-10T06:33:05.930Z,34.57
2018-11-10T06:35:34.236Z,31.77
2018-11-10T06:38:02.601Z,31.70
2018-11-10T06:40:33.750Z,31.77
2018-11-10T06:43:02.227Z,34.60
2018-11-10T06:45:30.722Z,30.73
2018-11-10T06:47:59.628Z,33.00
2018-11-10T06:50:28.040Z,31.77
2018-11-10T06:52:56.554Z,62.47
2018-11-10T06:55:24.870Z,67.13
2018-11-10T06:57:53.322Z,40.73
2018-11-10T07:00:21.746Z,33.17
2018-11-10T07:02:50.182Z,31.73
2018-11-10T07:05:18.564Z,30.60
2018-11-10T07:07:46.802Z,33.43
2018-11-10T07:10:15.185Z,34.33
2018-11-10T07:12:43.560Z,31.87
2018-11-10T07:15:13.780Z,30.63
2018-11-10T07:17:42.246Z,56.27
2018-11-10T07:20:10.649Z,53.73
2018-11-10T07:22:38.951Z,36.37
2018-11-10T07:25:07.863Z,32.17
2018-11-10T07:27:36.219Z,32.10
2018-11-10T07:30:06.146Z,34.70
2018-11-10T07:32:34.631Z,32.73
2018-11-10T07:35:03.714Z,33.50
2018-11-10T07:37:32.250Z,36.40
2018-11-10T07:40:01.699Z,61.00
2018-11-10T07:42:30.147Z,40.93
2018-11-10T07:44:59.421Z,37.70
2018-11-10T07:47:34.431Z,34.10
2018-11-10T07:50:04.051Z,36.27
2018-11-10T07:52:32.487Z,37.00
2018-11-10T07:55:01.030Z,36.70
2018-11-10T07:57:29.719Z,35.20
2018-11-10T07:59:59.500Z,34.67
2018-11-10T08:02:27.866Z,39.40
2018-11-10T08:04:56.218Z,35.93
2018-11-10T08:07:24.624Z,39.37
2018-11-10T08:09:53.090Z,35.43
2018-11-10T08:12:21.877Z,39.40
2018-11-10T08:14:50.386Z,36.13
2018-11-10T08:17:18.805Z,39.67
2018-11-10T08:19:47.280Z,65.60
2018-11-10T08:22:15.697Z,65.43
2018-11-10T08:24:44.293Z,68.53
2018-11-10T08:27:12.865Z,43.57
2018-11-10T08:29:41.376Z,42.27
2018-11-10T08:32:09.876Z,40.67
2018-11-10T08:34:38.311Z,41.97
2018-11-10T08:37:06.731Z,41.93
2018-11-10T08:39:35.097Z,39.60
2018-11-10T08:42:03.490Z,38.53
2018-11-10T08:44:33.536Z,37.90
2018-11-10T08:47:02.731Z,38.47
2018-11-10T08:49:31.090Z,40.37
2018-11-10T08:51:59.743Z,39.60
2018-11-10T08:54:28.119Z,41.97
2018-11-10T08:56:56.636Z,37.33
2018-11-10T08:59:24.920Z,40.70
2018-11-10T09:01:53.287Z,39.63
2018-11-10T09:04:22.323Z,43.30
2018-11-10T09:06:50.671Z,44.73
2018-11-10T09:09:19.193Z,39.83
2018-11-10T09:11:48.248Z,43.47
2018-11-10T09:14:16.744Z,85.73
2018-11-10T09:16:45.125Z,56.03
2018-11-10T09:19:13.617Z,46.03
2018-11-10T09:21:43.984Z,41.80
2018-11-10T09:24:12.994Z,42.57
2018-11-10T09:26:41.397Z,44.60
2018-11-10T09:29:10.167Z,43.10
2018-11-10T09:31:39.053Z,46.13
2018-11-10T09:34:08.078Z,43.07
2018-11-10T09:36:36.604Z,43.30
2018-11-10T09:39:06.722Z,44.83
2018-11-10T09:41:35.154Z,43.07
2018-11-10T09:44:03.638Z,48.23
2018-11-10T09:46:31.990Z,45.00
2018-11-10T09:49:01.213Z,45.53
2018-11-10T09:51:29.728Z,44.77
2018-11-10T09:53:58.436Z,41.77
2018-11-10T09:56:26.820Z,112.17
2018-11-10T09:58:55.251Z,59.37
2018-11-10T10:01:26.500Z,48.33
2018-11-10T10:03:55.270Z,47.00
2018-11-10T10:06:23.655Z,42.90
2018-11-10T10:08:52.407Z,42.43
2018-11-10T10:11:20.719Z,42.73
2018-11-10T10:13:49.081Z,42.33
2018-11-10T10:16:17.491Z,63.77
2018-11-10T10:18:45.844Z,53.03
2018-11-10T10:21:14.193Z,43.13
2018-11-10T10:23:42.699Z,43.63
2018-11-10T10:26:10.991Z,43.20
2018-11-10T10:28:39.575Z,41.33
2018-11-10T10:31:07.959Z,43.60
2018-11-10T10:33:36.631Z,42.87
2018-11-10T10:36:05.375Z,41.93
2018-11-10T10:38:33.937Z,43.47
2018-11-10T10:41:03.099Z,51.40
2018-11-10T10:43:31.640Z,44.63
2018-11-10T10:45:59.980Z,49.83
2018-11-10T10:48:28.556Z,42.53
2018-11-10T10:50:56.937Z,45.70
2018-11-10T10:53:25.411Z,44.07
2018-11-10T10:55:53.948Z,40.87
2018-11-10T10:58:22.384Z,42.37
2018-11-10T11:00:55.968Z,40.40
2018-11-10T11:03:29.790Z,51.73
2018-11-10T11:06:00.413Z,49.20
2018-11-10T11:08:29.145Z,42.13
2018-11-10T11:10:57.883Z,39.97
2018-11-10T11:13:26.402Z,38.67
2018-11-10T11:15:54.811Z,42.43
2018-11-10T11:18:23.394Z,38.93
2018-11-10T11:20:51.865Z,38.67
2018-11-10T11:23:20.552Z,39.50
2018-11-10T11:25:48.859Z,44.63
2018-11-10T11:28:17.254Z,39.57
2018-11-10T11:30:45.665Z,37.97
2018-11-10T11:33:14.206Z,40.77
2018-11-10T11:35:42.650Z,37.40
2018-11-10T11:38:10.972Z,37.30
2018-11-10T11:40:39.309Z,35.50
2018-11-10T11:43:08.187Z,37.20
2018-11-10T11:45:36.838Z,44.17
2018-11-10T11:48:05.648Z,40.73
2018-11-10T11:50:33.943Z,39.67
2018-11-10T11:53:02.431Z,37.67
2018-11-10T11:55:30.939Z,38.60
2018-11-10T11:57:59.527Z,33.80
2018-11-10T12:00:28.646Z,39.57
2018-11-10T12:02:57.118Z,35.77
2018-11-10T12:05:25.596Z,38.57
2018-11-10T12:07:54.015Z,41.30
2018-11-10T12:10:22.394Z,42.93
2018-11-10T12:12:50.801Z,41.93
2018-11-10T12:15:19.118Z,45.47
2018-11-10T12:17:47.491Z,47.37
2018-11-10T12:20:16.379Z,39.47
2018-11-10T12:22:44.697Z,39.23
2018-11-10T12:25:14.832Z,32.80
2018-11-10T12:27:43.768Z,35.67
2018-11-10T12:30:12.346Z,32.87
2018-11-10T12:32:41.284Z,31.93
2018-11-10T12:35:11.390Z,32.37
2018-11-10T12:37:39.940Z,31.57
2018-11-10T12:40:09.894Z,32.60
2018-11-10T12:42:38.799Z,30.23
2018-11-10T12:45:07.965Z,32.20
2018-11-10T12:47:36.301Z,32.37
2018-11-10T12:50:05.096Z,33.70
2018-11-10T12:52:33.650Z,32.37
2018-11-10T12:55:02.067Z,30.17
2018-11-10T12:57:30.387Z,29.63
2018-11-10T12:59:58.681Z,41.87
2018-11-10T13:02:27.225Z,39.90
2018-11-10T13:04:55.581Z,32.03
2018-11-10T13:07:23.906Z,33.80
2018-11-10T13:09:52.355Z,33.80
2018-11-10T13:12:20.750Z,32.83
2018-11-10T13:14:49.457Z,41.67
2018-11-10T13:17:17.803Z,37.93
2018-11-10T13:19:46.181Z,40.13
2018-11-10T13:22:14.578Z,41.07
2018-11-10T13:24:43.130Z,38.43
2018-11-10T13:27:11.731Z,33.67
2018-11-10T13:29:40.168Z,70.93
2018-11-10T13:32:08.535Z,41.33
2018-11-10T13:34:37.009Z,36.57
2018-11-10T13:37:05.606Z,32.33
2018-11-10T13:39:34.009Z,30.17
2018-11-10T13:42:02.506Z,29.97
2018-11-10T13:44:30.977Z,29.60
2018-11-10T13:46:59.237Z,33.50
2018-11-10T13:49:27.640Z,59.43
2018-11-10T13:51:56.154Z,53.77
2018-11-10T13:54:24.347Z,42.97
2018-11-10T13:56:52.739Z,34.47
2018-11-10T13:59:21.169Z,32.93
2018-11-10T14:01:49.536Z,37.97
2018-11-10T14:04:18.850Z,31.93
2018-11-10T14:06:47.184Z,29.90
2018-11-10T14:09:15.521Z,31.60
2018-11-10T14:11:43.869Z,30.57
2018-11-10T14:14:12.350Z,33.83
2018-11-10T14:16:40.885Z,32.83
2018-11-10T14:19:09.263Z,31.77
2018-11-10T14:21:37.746Z,32.03
2018-11-10T14:24:06.528Z,31.60
2018-11-10T14:26:35.218Z,33.13
2018-11-10T14:29:03.975Z,34.67
2018-11-10T14:31:32.417Z,33.83
2018-11-10T14:34:01.048Z,34.20
2018-11-10T14:36:29.825Z,33.43
2018-11-10T14:38:58.273Z,34.40
2018-11-10T14:41:26.658Z,30.03
2018-11-10T14:43:54.907Z,32.60
2018-11-10T14:46:23.244Z,30.23
2018-11-10T14:48:51.627Z,33.30
2018-11-10T14:51:19.966Z,31.50
2018-11-10T14:53:48.244Z,30.60
2018-11-10T14:56:16.887Z,32.43
2018-11-10T14:58:45.387Z,31.93
2018-11-10T15:01:13.736Z,32.63
2018-11-10T15:03:42.060Z,28.50
2018-11-10T15:06:10.581Z,31.30
2018-11-10T15:08:39.045Z,29.50
2018-11-10T15:11:08.576Z,29.77
2018-11-10T15:13:37.076Z,30.30
2018-11-10T15:16:10.156Z,30.07
2018-11-10T15:18:38.747Z,28.60
2018-11-10T15:21:07.270Z,30.93
2018-11-10T15:23:35.692Z,30.47
2018-11-10T15:26:04.070Z,30.47
2018-11-10T15:28:33.381Z,28.83
2018-11-10T15:31:01.825Z,32.90
2018-11-10T15:33:31.464Z,31.20
2018-11-10T15:36:00.230Z,30.70
2018-11-10T15:38:29.167Z,29.93
2018-11-10T15:40:57.515Z,33.43
2018-11-10T15:43:25.937Z,32.03
2018-11-10T15:45:54.351Z,32.07
2018-11-10T15:48:22.831Z,32.27
2018-11-10T15:50:51.261Z,29.23
2018-11-10T15:53:19.828Z,29.07
2018-11-10T15:55:48.309Z,32.40
2018-11-10T15:58:16.750Z,32.10
2018-11-10T16:00:45.094Z,32.00
2018-11-10T16:03:13.751Z,34.83
2018-11-10T16:05:42.265Z,31.53
2018-11-10T16:08:10.842Z,38.30
2018-11-10T16:10:39.322Z,44.07
2018-11-10T16:13:07.695Z,41.63
2018-11-10T16:15:36.219Z,42.40
2018-11-10T16:18:04.792Z,40.73
2018-11-10T16:20:33.327Z,44.50
2018-11-10T16:23:01.686Z,54.23
2018-11-10T16:25:30.374Z,55.10
2018-11-10T16:28:01.146Z,41.20
2018-11-10T16:30:29.786Z,41.70
2018-11-10T16:32:58.248Z,37.53
2018-11-10T16:35:26.646Z,38.57
2018-11-10T16:37:55.173Z,44.57
2018-11-10T16:40:23.643Z,39.90
2018-11-10T16:42:52.199Z,38.93
2018-11-10T16:45:21.215Z,36.77
2018-11-10T16:47:49.639Z,32.63
2018-11-10T16:50:18.086Z,31.93
2018-11-10T16:52:48.203Z,31.27
2018-11-10T16:55:16.536Z,31.43
2018-11-10T16:57:44.889Z,33.90
2018-11-10T17:00:15.082Z,30.73
2018-11-10T17:02:43.589Z,32.50
2018-11-10T17:05:12.316Z,31.43
2018-11-10T17:07:41.514Z,30.73
2018-11-10T17:10:12.733Z,33.83
2018-11-10T17:12:41.735Z,32.73
2018-11-10T17:15:10.603Z,29.87
2018-11-10T17:17:39.361Z,33.43
2018-11-10T17:20:10.343Z,34.33
2018-11-10T17:22:39.482Z,32.17
2018-11-10T17:25:08.721Z,40.93
2018-11-10T17:27:37.123Z,42.67
2018-11-10T17:30:08.407Z,41.03
2018-11-10T17:32:37.880Z,35.50
2018-11-10T17:35:06.951Z,42.43
2018-11-10T17:37:36.081Z,46.67
2018-11-10T17:40:04.866Z,41.40
2018-11-10T17:42:33.350Z,36.50
2018-11-10T17:45:01.682Z,35.17
2018-11-10T17:47:30.017Z,32.27
2018-11-10T17:49:59.535Z,33.27
2018-11-10T17:52:28.213Z,31.67
2018-11-10T17:54:56.998Z,33.70
2018-11-10T17:57:25.360Z,33.00
2018-11-10T17:59:53.800Z,39.70
2018-11-10T18:02:22.288Z,42.73
2018-11-10T18:04:50.993Z,35.03
2018-11-10T18:07:19.475Z,33.90
2018-11-10T18:09:47.819Z,36.43
2018-11-10T18:12:16.211Z,38.97
2018-11-10T18:14:44.580Z,43.23
2018-11-10T18:17:12.931Z,34.57
2018-11-10T18:19:41.615Z,37.30
2018-11-10T18:22:10.271Z,34.83
2018-11-10T18:24:38.645Z,34.33
2018-11-10T18:27:07.126Z,34.33
2018-11-10T18:29:35.518Z,35.23
2018-11-10T18:32:04.171Z,37.17
2018-11-10T18:34:32.561Z,38.87
2018-11-10T18:37:00.948Z,36.53
2018-11-10T18:39:29.440Z,35.83
2018-11-10T18:41:57.955Z,34.37
2018-11-10T18:44:26.269Z,35.00
2018-11-10T18:46:55.043Z,36.93
2018-11-10T18:49:23.438Z,38.77
2018-11-10T18:51:52.055Z,42.80
2018-11-10T18:54:20.590Z,55.60
2018-11-10T18:56:49.160Z,51.37
2018-11-10T18:59:17.520Z,56.07
2018-11-10T19:01:45.993Z,50.50
2018-11-10T19:04:15.234Z,44.87
2018-11-10T19:06:43.823Z,39.43
2018-11-10T19:09:13.363Z,37.37
2018-11-10T19:11:41.820Z,34.50
2018-11-10T19:14:10.631Z,35.50
2018-11-10T19:16:39.033Z,36.30
2018-11-10T19:19:08.375Z,37.93
2018-11-10T19:21:36.966Z,39.87
2018-11-10T19:24:05.924Z,40.87
2018-11-10T19:26:34.274Z,38.00
2018-11-10T19:29:02.613Z,40.30
2018-11-10T19:31:30.948Z,45.93
2018-11-10T19:33:59.365Z,41.33
2018-11-10T19:36:27.834Z,37.67
2018-11-10T19:38:56.194Z,37.97
2018-11-10T19:41:24.530Z,38.53
2018-11-10T19:43:52.992Z,36.00
2018-11-10T19:46:21.471Z,36.57
2018-11-10T19:48:49.842Z,35.63
2018-11-10T19:51:18.390Z,36.00
2018-11-10T19:53:46.625Z,37.17
2018-11-10T19:56:15.002Z,35.57
2018-11-10T19:58:43.399Z,44.27
2018-11-10T20:01:11.828Z,55.40
2018-11-10T20:03:45.714Z,44.80
2018-11-10T20:06:14.228Z,38.50
2018-11-10T20:08:42.624Z,41.00
2018-11-10T20:11:11.188Z,40.93
2018-11-10T20:13:40.646Z,39.70
2018-11-10T20:16:15.980Z,40.07
2018-11-10T20:18:44.958Z,37.20
2018-11-10T20:21:13.332Z,40.53
2018-11-10T20:23:41.804Z,38.43
2018-11-10T20:26:10.343Z,38.80
2018-11-10T20:28:38.943Z,36.77
2018-11-10T20:31:07.759Z,39.17
2018-11-10T20:33:36.277Z,42.47
2018-11-10T20:36:04.875Z,42.47
2018-11-10T20:38:33.378Z,41.50
2018-11-10T20:41:03.233Z,41.50
2018-11-10T20:43:31.804Z,40.27
2018-11-10T20:46:00.966Z,41.53
2018-11-10T20:48:29.449Z,40.67
2018-11-10T20:50:58.223Z,40.10
2018-11-10T20:53:26.755Z,46.37
2018-11-10T20:55:55.072Z,41.50
2018-11-10T20:58:23.714Z,42.97
2018-11-10T21:00:52.209Z,40.70
2018-11-10T21:03:20.826Z,40.67
2018-11-10T21:05:49.239Z,41.90
2018-11-10T21:08:17.666Z,43.27
2018-11-10T21:10:46.182Z,41.27
2018-11-10T21:13:14.849Z,40.30
2018-11-10T21:15:44.737Z,46.73
2018-11-10T21:18:13.252Z,42.13
2018-11-10T21:20:43.077Z,41.67
2018-11-10T21:23:11.841Z,46.07
2018-11-10T21:25:40.275Z,45.93
2018-11-10T21:28:08.703Z,41.47
2018-11-10T21:30:37.169Z,60.13
2018-11-10T21:33:05.647Z,107.00
2018-11-10T21:35:34.255Z,94.40
2018-11-10T21:38:02.909Z,75.17
2018-11-10T21:40:31.311Z,54.23
2018-11-10T21:42:59.776Z,50.63
2018-11-10T21:45:28.177Z,51.90
2018-11-10T21:47:56.516Z,46.23
2018-11-10T21:50:24.836Z,41.63
2018-11-10T21:52:53.134Z,44.73
2018-11-10T21:55:21.447Z,43.50
2018-11-10T21:57:50.191Z,45.57
2018-11-10T22:00:20.825Z,44.10
2018-11-10T22:02:49.461Z,43.00
2018-11-10T22:05:18.265Z,42.77
2018-11-10T22:07:46.639Z,43.90
2018-11-10T22:10:16.235Z,44.40
2018-11-10T22:12:45.315Z,45.10
2018-11-10T22:15:16.075Z,44.13
2018-11-10T22:17:45.286Z,47.43
2018-11-10T22:20:14.852Z,46.20
2018-11-10T22:22:43.159Z,46.47
2018-11-10T22:25:12.317Z,47.30
2018-11-10T22:27:42.168Z,43.27
2018-11-10T22:30:12.568Z,43.20
2018-11-10T22:32:41.448Z,46.23
2018-11-10T22:35:10.414Z,43.10
2018-11-10T22:37:38.870Z,47.03
2018-11-10T22:40:09.250Z,44.87
2018-11-10T22:42:38.503Z,43.13
2018-11-10T22:45:08.156Z,51.53
2018-11-10T22:47:36.550Z,50.77
2018-11-10T22:50:06.483Z,46.50
2018-11-10T22:52:34.926Z,44.77
2018-11-10T22:55:03.588Z,42.63
2018-11-10T22:57:31.886Z,41.80
2018-11-10T23:00:00.389Z,45.17
2018-11-10T23:02:28.903Z,43.07
2018-11-10T23:04:57.204Z,42.63
2018-11-10T23:07:25.656Z,47.03
2018-11-10T23:09:53.932Z,66.90
2018-11-10T23:12:22.314Z,62.53
2018-11-10T23:14:50.694Z,52.30
2018-11-10T23:17:19.277Z,53.43
2018-11-10T23:19:47.657Z,43.37
2018-11-10T23:22:22.321Z,42.90
2018-11-10T23:24:50.690Z,45.93
2018-11-10T23:27:19.067Z,45.57
2018-11-10T23:29:47.881Z,48.37
2018-11-10T23:32:16.208Z,43.53
2018-11-10T23:34:45.495Z,41.30
2018-11-10T23:37:13.919Z,42.43
2018-11-10T23:39:42.559Z,44.07
2018-11-10T23:42:11.172Z,41.03
2018-11-10T23:44:39.538Z,42.80
2018-11-10T23:47:07.826Z,44.90
2018-11-10T23:49:36.319Z,39.30
2018-11-10T23:52:04.698Z,42.73
2018-11-10T23:54:33.229Z,39.90
2018-11-10T23:57:01.644Z,43.93
2018-11-10T23:59:30.003Z,44.00
